createdAt,value
2023-04-03T00:00:36.749Z,73.47
2023-04-03T00:03:03.507Z,74.35
2023-04-03T00:05:30.227Z,74.07
2023-04-03T00:07:56.713Z,74.11
2023-04-03T00:10:23.296Z,74.73
2023-04-03T00:12:49.753Z,75.55
2023-04-03T00:15:16.314Z,76.04
2023-04-03T00:17:42.794Z,75.23
2023-04-03T00:20:09.659Z,74.70
2023-04-03T00:22:36.198Z,75.50
2023-04-03T00:25:02.636Z,75.14
2023-04-03T00:27:29.141Z,74.62
2023-04-03T00:29:55.513Z,74.53
2023-04-03T00:32:21.938Z,74.24
2023-04-03T00:34:48.325Z,74.53
2023-04-03T00:37:14.790Z,74.80
2023-04-03T00:39:41.679Z,75.17
2023-04-03T00:42:08.091Z,75.55
2023-04-03T00:44:37.519Z,75.72
2023-04-03T00:47:06.812Z,76.43
2023-04-03T00:49:33.410Z,76.22
2023-04-03T00:52:00.538Z,76.62
2023-04-03T00:54:27.635Z,76.60
2023-04-03T00:56:57.023Z,78.04
2023-04-03T00:59:28.238Z,78.14
2023-04-03T01:01:57.864Z,78.06
2023-04-03T01:04:44.224Z,78.52
2023-04-03T01:07:19.174Z,79.21
2023-04-03T01:09:47.796Z,79.46
2023-04-03T01:12:32.038Z,79.40
2023-04-03T01:15:01.096Z,79.71
2023-04-03T01:17:44.587Z,80.40
2023-04-03T01:20:29.310Z,80.24
2023-04-03T01:23:27.683Z,80.70
2023-04-03T01:25:57.131Z,80.54
2023-04-03T01:28:28.351Z,81.50
2023-04-03T01:31:13.428Z,82.45
2023-04-03T01:33:40.290Z,82.24
2023-04-03T01:36:07.779Z,82.37
2023-04-03T01:38:34.282Z,82.57
2023-04-03T01:41:01.298Z,83.34
2023-04-03T01:43:27.800Z,83.81
2023-04-03T01:45:55.740Z,84.94
2023-04-03T01:48:22.575Z,84.43
2023-04-03T01:50:49.532Z,84.66
2023-04-03T01:53:16.064Z,85.64
2023-04-03T01:55:42.597Z,85.23
2023-04-03T01:58:09.069Z,85.31
2023-04-03T02:00:35.888Z,85.02
2023-04-03T02:03:06.517Z,85.48
2023-04-03T02:05:35.743Z,84.50
2023-04-03T02:08:02.532Z,84.94
2023-04-03T02:10:31.891Z,84.75
2023-04-03T02:13:01.613Z,85.64
2023-04-03T02:15:28.184Z,85.02
2023-04-03T02:17:54.756Z,85.06
2023-04-03T02:20:21.739Z,85.57
2023-04-03T02:22:48.462Z,86.61
2023-04-03T02:25:15.432Z,86.46
2023-04-03T02:27:45.426Z,86.10
2023-04-03T02:30:24.270Z,86.10
2023-04-03T02:32:56.095Z,86.40
2023-04-03T02:35:24.934Z,85.79
2023-04-03T02:38:00.330Z,85.45
2023-04-03T02:40:30.495Z,85.11
2023-04-03T02:43:06.883Z,85.98
2023-04-03T02:45:42.275Z,86.52
2023-04-03T02:49:08.637Z,86.60
2023-04-03T02:51:40.735Z,86.84
2023-04-03T02:57:21.830Z,87.53
2023-04-03T02:59:50.729Z,87.37
2023-04-03T03:02:20.587Z,87.93
2023-04-03T03:04:47.207Z,87.90
2023-04-03T03:07:16.979Z,88.26
2023-04-03T03:09:49.696Z,89.28
2023-04-03T03:12:16.767Z,89.24
2023-04-03T03:14:44.070Z,89.39
2023-04-03T03:17:10.644Z,89.60
2023-04-03T03:19:37.124Z,89.52
2023-04-03T03:22:07.038Z,90.18
2023-04-03T03:24:33.564Z,90.50
2023-04-03T03:27:00.307Z,90.52
2023-04-03T03:29:26.838Z,91.14
2023-04-03T03:31:53.300Z,90.68
2023-04-03T03:34:19.930Z,91.16
2023-04-03T03:36:46.482Z,91.55
2023-04-03T03:39:13.055Z,91.88
2023-04-03T03:41:39.594Z,92.53
2023-04-03T03:44:06.128Z,92.40
2023-04-03T03:46:32.731Z,93.30
2023-04-03T03:48:59.448Z,93.31
2023-04-03T03:51:26.157Z,93.00
2023-04-03T03:53:52.841Z,93.45
2023-04-03T03:56:19.336Z,94.67
2023-04-03T03:58:46.168Z,94.62
2023-04-03T04:01:36.021Z,94.84
2023-04-03T04:04:06.173Z,95.64
2023-04-03T04:06:32.833Z,95.71
2023-04-03T04:08:59.287Z,95.69
2023-04-03T04:11:25.918Z,95.46
2023-04-03T04:13:52.305Z,96.44
2023-04-03T04:16:18.793Z,96.02
2023-04-03T04:18:45.345Z,96.77
2023-04-03T04:21:11.760Z,96.51
2023-04-03T04:23:38.179Z,97.01
2023-04-03T04:26:04.672Z,97.44
2023-04-03T04:28:31.080Z,97.24
2023-04-03T04:30:57.572Z,97.35
2023-04-03T04:33:24.051Z,98.20
2023-04-03T04:35:51.055Z,98.16
2023-04-03T04:38:17.806Z,98.78
2023-04-03T04:40:44.275Z,98.39
2023-04-03T04:43:11.855Z,97.74
2023-04-03T04:45:38.618Z,98.07
2023-04-03T04:48:05.814Z,97.93
2023-04-03T04:50:32.264Z,96.73
2023-04-03T04:52:58.822Z,95.37
2023-04-03T04:55:25.315Z,94.88
2023-04-03T04:57:51.749Z,94.63
2023-04-03T05:00:18.725Z,93.99
2023-04-03T05:02:45.272Z,93.83
2023-04-03T05:05:11.910Z,94.72
2023-04-03T05:07:38.458Z,94.44
2023-04-03T05:10:05.424Z,94.94
2023-04-03T05:12:33.220Z,95.00
2023-04-03T05:14:59.675Z,95.43
2023-04-03T05:17:26.210Z,95.05
2023-04-03T05:19:52.677Z,95.12
2023-04-03T05:22:19.110Z,95.04
2023-04-03T05:24:45.747Z,94.42
2023-04-03T05:27:12.280Z,93.95
2023-04-03T05:29:38.761Z,92.73
2023-04-03T05:32:05.651Z,92.57
2023-04-03T05:34:32.035Z,92.08
2023-04-03T05:36:58.436Z,91.56
2023-04-03T05:39:25.251Z,91.87
2023-04-03T05:41:51.686Z,90.84
2023-04-03T05:44:18.122Z,90.22
2023-04-03T05:46:47.649Z,90.64
2023-04-03T05:49:14.128Z,88.81
2023-04-03T05:51:41.326Z,89.03
2023-04-03T05:54:16.809Z,87.52
2023-04-03T05:56:43.443Z,88.13
2023-04-03T05:59:10.372Z,86.68
2023-04-03T06:01:36.759Z,86.41
2023-04-03T06:04:04.051Z,84.88
2023-04-03T06:06:54.106Z,84.92
2023-04-03T06:09:26.381Z,83.48
2023-04-03T06:11:53.718Z,82.66
2023-04-03T06:14:20.179Z,81.18
2023-04-03T06:16:46.676Z,81.21
2023-04-03T06:19:13.351Z,81.72
2023-04-03T06:21:39.824Z,81.23
2023-04-03T06:24:07.014Z,79.15
2023-04-03T06:26:34.274Z,77.22
2023-04-03T06:29:01.114Z,76.14
2023-04-03T06:31:27.610Z,78.21
2023-04-03T06:33:54.103Z,77.89
2023-04-03T06:36:21.964Z,76.70
2023-04-03T06:38:49.281Z,78.40
2023-04-03T06:41:17.336Z,77.11
2023-04-03T06:43:48.080Z,76.14
2023-04-03T06:46:19.645Z,77.19
2023-04-03T06:48:46.512Z,75.28
2023-04-03T06:51:19.605Z,77.04
2023-04-03T06:53:46.913Z,72.74
2023-04-03T06:56:13.560Z,75.15
2023-04-03T06:58:41.556Z,77.08
2023-04-03T07:01:08.735Z,76.44
2023-04-03T07:03:36.439Z,75.69
2023-04-03T07:06:03.972Z,74.36
2023-04-03T07:08:30.612Z,75.06
2023-04-03T07:10:57.232Z,74.49
2023-04-03T07:13:23.602Z,75.68
2023-04-03T07:15:50.088Z,74.58
2023-04-03T07:18:17.811Z,72.87
2023-04-03T07:20:44.239Z,71.64
2023-04-03T07:23:11.399Z,70.92
2023-04-03T07:25:38.685Z,68.23
2023-04-03T07:28:05.289Z,68.35
2023-04-03T07:30:31.743Z,67.62
2023-04-03T07:32:58.169Z,69.22
2023-04-03T07:35:24.658Z,70.02
2023-04-03T07:37:51.154Z,70.10
2023-04-03T07:40:19.088Z,69.25
2023-04-03T07:42:46.234Z,71.00
2023-04-03T07:45:12.898Z,71.06
2023-04-03T07:47:39.292Z,69.82
2023-04-03T07:50:06.234Z,69.37
2023-04-03T07:52:32.622Z,70.60
2023-04-03T07:54:59.044Z,67.68
2023-04-03T07:57:25.814Z,69.67
2023-04-03T07:59:52.272Z,66.94
2023-04-03T08:02:18.679Z,65.73
2023-04-03T08:04:45.352Z,68.26
2023-04-03T08:07:11.930Z,66.70
2023-04-03T08:09:38.323Z,65.92
2023-04-03T08:12:04.776Z,65.67
2023-04-03T08:14:37.606Z,64.16
2023-04-03T08:17:05.953Z,61.38
2023-04-03T08:19:32.442Z,57.97
2023-04-03T08:21:59.564Z,54.93
2023-04-03T08:24:26.260Z,54.31
2023-04-03T08:26:52.696Z,53.84
2023-04-03T08:29:19.117Z,53.08
2023-04-03T08:31:47.229Z,51.69
2023-04-03T08:34:14.129Z,53.11
2023-04-03T08:36:40.960Z,50.59
2023-04-03T08:39:07.519Z,50.84
2023-04-03T08:41:34.913Z,50.62
2023-04-03T08:44:09.636Z,54.68
2023-04-03T08:47:03.193Z,54.31
2023-04-03T08:49:41.302Z,53.19
2023-04-03T08:52:15.912Z,54.25
2023-04-03T08:54:53.679Z,54.46
2023-04-03T08:57:34.291Z,53.43
2023-04-03T09:00:05.293Z,52.97
2023-04-03T09:02:36.817Z,55.05
2023-04-03T09:05:13.293Z,55.89
2023-04-03T09:07:48.438Z,55.77
2023-04-03T09:10:20.176Z,55.43
2023-04-03T09:13:03.609Z,55.29
2023-04-03T09:15:38.341Z,54.24
2023-04-03T09:18:15.532Z,53.62
2023-04-03T09:20:53.328Z,52.30
2023-04-03T09:23:41.249Z,52.16
2023-04-03T09:26:15.432Z,52.65
2023-04-03T09:28:50.109Z,53.94
2023-04-03T09:31:20.077Z,52.34
2023-04-03T09:33:47.586Z,51.19
2023-04-03T09:36:14.324Z,50.74
2023-04-03T09:38:40.812Z,50.78
2023-04-03T09:41:19.746Z,50.86
2023-04-03T09:43:55.155Z,49.84
2023-04-03T09:46:33.185Z,50.18
2023-04-03T09:49:08.955Z,48.92
2023-04-03T09:51:37.307Z,48.28
2023-04-03T09:54:40.506Z,48.74
2023-04-03T09:57:11.180Z,48.92
2023-04-03T09:59:43.407Z,48.38
2023-04-03T10:02:32.114Z,48.19
2023-04-03T10:05:08.940Z,48.82
2023-04-03T10:07:38.291Z,49.59
2023-04-03T10:10:23.774Z,49.84
2023-04-03T10:13:04.828Z,50.62
2023-04-03T10:15:40.432Z,50.39
2023-04-03T10:18:31.452Z,49.13
2023-04-03T10:21:11.895Z,48.75
2023-04-03T10:23:50.987Z,49.13
2023-04-03T10:26:42.285Z,50.06
2023-04-03T10:29:37.451Z,48.64
2023-04-03T10:32:24.843Z,48.27
2023-04-03T10:35:04.970Z,48.50
2023-04-03T10:37:49.273Z,48.24
2023-04-03T10:40:33.298Z,46.56
2023-04-03T10:43:18.512Z,48.31
2023-04-03T10:46:01.267Z,49.48
2023-04-03T10:48:48.168Z,49.25
2023-04-03T10:51:30.762Z,49.20
2023-04-03T10:54:17.599Z,48.39
2023-04-03T10:57:01.088Z,48.77
2023-04-03T10:59:49.906Z,49.73
2023-04-03T11:04:17.513Z,49.47
2023-04-03T11:05:46.561Z,48.54
2023-04-03T11:08:25.234Z,48.53
2023-04-03T11:10:54.475Z,48.55
2023-04-03T11:13:27.502Z,47.71
2023-04-03T11:15:55.273Z,47.62
2023-04-03T11:18:43.372Z,47.95
2023-04-03T11:21:39.454Z,47.56
2023-04-03T11:24:12.997Z,45.00
2023-04-03T11:26:45.228Z,46.52
2023-04-03T11:29:34.264Z,46.04
2023-04-03T11:32:02.786Z,46.30
2023-04-03T11:34:41.663Z,47.72
2023-04-03T11:37:40.961Z,48.12
2023-04-03T11:40:20.790Z,48.31
2023-04-03T11:42:50.618Z,48.07
2023-04-03T11:45:23.282Z,46.85
2023-04-03T11:47:53.929Z,47.80
2023-04-03T11:50:35.611Z,48.87
2023-04-03T11:53:23.753Z,48.41
2023-04-03T11:55:50.027Z,48.30
2023-04-03T11:58:32.680Z,48.36
2023-04-03T12:01:06.987Z,48.49
2023-04-03T12:03:55.236Z,48.39
2023-04-03T12:06:21.925Z,47.17
2023-04-03T12:08:52.378Z,47.51
2023-04-03T12:11:29.670Z,46.31
2023-04-03T12:13:57.086Z,48.15
2023-04-03T12:16:28.888Z,46.88
2023-04-03T12:19:14.986Z,47.46
2023-04-03T12:21:47.584Z,48.02
2023-04-03T12:24:16.987Z,46.67
2023-04-03T12:27:01.521Z,46.19
2023-04-03T12:29:34.180Z,46.73
2023-04-03T12:32:17.008Z,46.06
2023-04-03T12:34:49.353Z,45.19
2023-04-03T12:37:37.398Z,45.71
2023-04-03T12:40:09.819Z,46.20
2023-04-03T12:42:56.479Z,46.94
2023-04-03T12:45:24.973Z,47.75
2023-04-03T12:47:54.171Z,47.26
2023-04-03T12:50:28.491Z,46.61
2023-04-03T12:53:18.135Z,47.30
2023-04-03T12:55:44.727Z,47.48
2023-04-03T12:58:21.782Z,47.39
2023-04-03T13:01:00.751Z,48.87
2023-04-03T13:03:28.415Z,47.92
2023-04-03T13:06:04.344Z,46.74
2023-04-03T13:08:34.095Z,46.05
2023-04-03T13:11:06.712Z,46.29
2023-04-03T13:13:33.262Z,44.91
2023-04-03T13:16:00.627Z,45.13
2023-04-03T13:18:35.781Z,46.29
2023-04-03T13:21:20.363Z,45.71
2023-04-03T13:23:55.237Z,44.90
2023-04-03T13:26:29.094Z,45.92
2023-04-03T13:29:06.765Z,44.92
2023-04-03T13:31:37.080Z,44.39
2023-04-03T13:34:17.835Z,45.04
2023-04-03T13:36:57.791Z,45.86
2023-04-03T13:39:31.082Z,45.94
2023-04-03T13:42:00.347Z,43.57
2023-04-03T13:44:33.454Z,44.88
2023-04-03T13:47:21.764Z,44.88
2023-04-03T13:50:13.058Z,44.23
2023-04-03T13:52:43.896Z,45.46
2023-04-03T13:55:28.171Z,45.40
2023-04-03T13:58:01.032Z,45.27
2023-04-03T14:00:56.442Z,43.74
2023-04-03T14:03:29.385Z,44.81
2023-04-03T14:05:56.059Z,43.70
2023-04-03T14:08:29.452Z,43.62
2023-04-03T14:11:03.020Z,44.50
2023-04-03T14:13:32.872Z,43.90
2023-04-03T14:16:05.726Z,44.56
2023-04-03T14:18:40.000Z,44.62
2023-04-03T14:21:06.481Z,44.43
2023-04-03T14:23:33.934Z,45.51
2023-04-03T14:26:01.272Z,43.11
2023-04-03T14:28:27.977Z,45.28
2023-04-03T14:30:54.473Z,42.80
2023-04-03T14:33:23.161Z,44.42
2023-04-03T14:35:50.008Z,44.13
2023-04-03T14:38:27.350Z,44.48
2023-04-03T14:40:57.100Z,43.42
2023-04-03T14:43:28.436Z,44.80
2023-04-03T14:45:55.073Z,45.49
2023-04-03T14:48:24.912Z,44.06
2023-04-03T14:51:04.495Z,44.22
2023-04-03T14:53:38.737Z,44.50
2023-04-03T14:56:23.055Z,45.09
2023-04-03T14:58:52.979Z,44.93
2023-04-03T15:01:19.653Z,44.55
2023-04-03T15:03:46.111Z,44.96
2023-04-03T15:06:14.432Z,45.02
2023-04-03T15:08:43.024Z,44.74
2023-04-03T15:11:10.927Z,43.85
2023-04-03T15:13:39.053Z,44.77
2023-04-03T15:16:13.718Z,44.85
2023-04-03T15:18:40.223Z,45.40
2023-04-03T15:21:06.715Z,45.35
2023-04-03T15:23:33.179Z,45.16
2023-04-03T15:25:59.946Z,44.23
2023-04-03T15:28:34.296Z,45.31
2023-04-03T15:31:00.978Z,45.30
2023-04-03T15:33:27.906Z,45.22
2023-04-03T15:36:02.698Z,44.64
2023-04-03T15:38:34.020Z,44.84
2023-04-03T15:41:00.394Z,44.75
2023-04-03T15:43:26.987Z,44.72
2023-04-03T15:45:56.149Z,44.60
2023-04-03T15:48:22.534Z,44.34
2023-04-03T15:50:50.086Z,44.49
2023-04-03T15:53:16.502Z,44.33
2023-04-03T15:55:43.192Z,44.12
2023-04-03T15:58:09.662Z,44.76
2023-04-03T16:00:36.963Z,44.97
2023-04-03T16:03:17.170Z,44.75
2023-04-03T16:05:43.870Z,43.90
2023-04-03T16:08:10.731Z,44.28
2023-04-03T16:10:37.790Z,44.17
2023-04-03T16:13:05.076Z,44.21
2023-04-03T16:15:33.016Z,45.55
2023-04-03T16:18:00.229Z,45.21
2023-04-03T16:20:26.996Z,46.07
2023-04-03T16:22:53.847Z,46.51
2023-04-03T16:25:21.293Z,46.04
2023-04-03T16:27:47.676Z,46.21
2023-04-03T16:30:14.876Z,45.79
2023-04-03T16:32:41.804Z,46.67
2023-04-03T16:35:13.977Z,45.91
2023-04-03T16:37:40.654Z,45.94
2023-04-03T16:40:08.119Z,46.56
2023-04-03T16:42:36.517Z,47.48
2023-04-03T16:45:04.535Z,46.57
2023-04-03T16:47:31.102Z,46.96
2023-04-03T16:49:57.650Z,46.49
2023-04-03T16:52:24.381Z,47.31
2023-04-03T16:54:52.622Z,47.40
2023-04-03T16:57:18.998Z,47.10
2023-04-03T16:59:45.357Z,46.79
2023-04-03T17:02:11.774Z,46.60
2023-04-03T17:04:38.127Z,47.17
2023-04-03T17:07:08.224Z,46.72
2023-04-03T17:09:34.633Z,47.80
2023-04-03T17:12:01.174Z,47.38
2023-04-03T17:14:27.591Z,47.52
2023-04-03T17:16:54.119Z,48.68
2023-04-03T17:19:20.769Z,47.90
2023-04-03T17:21:47.161Z,48.61
2023-04-03T17:24:17.912Z,48.39
2023-04-03T17:26:44.359Z,48.40
2023-04-03T17:29:10.793Z,48.16
2023-04-03T17:31:37.963Z,48.08
2023-04-03T17:34:05.898Z,48.77
2023-04-03T17:36:33.997Z,48.83
2023-04-03T17:39:00.751Z,49.68
2023-04-03T17:41:27.138Z,49.44
2023-04-03T17:43:56.353Z,49.41
2023-04-03T17:46:24.759Z,50.43
2023-04-03T17:48:51.725Z,50.10
2023-04-03T17:51:21.572Z,49.72
2023-04-03T17:53:48.572Z,50.14
2023-04-03T17:56:17.965Z,50.36
2023-04-03T17:58:45.201Z,49.83
2023-04-03T18:01:14.586Z,50.48
2023-04-03T18:03:41.851Z,50.66
2023-04-03T18:06:12.444Z,50.35
2023-04-03T18:08:42.244Z,50.55
2023-04-03T18:11:08.952Z,51.01
2023-04-03T18:13:37.634Z,52.18
2023-04-03T18:16:07.175Z,51.40
2023-04-03T18:18:34.075Z,51.62
2023-04-03T18:21:00.768Z,51.63
2023-04-03T18:23:30.548Z,52.03
2023-04-03T18:25:57.520Z,51.71
2023-04-03T18:28:23.942Z,52.33
2023-04-03T18:30:53.479Z,52.47
2023-04-03T18:33:19.846Z,52.61
2023-04-03T18:35:46.211Z,52.78
2023-04-03T18:38:12.582Z,52.99
2023-04-03T18:40:40.867Z,54.04
2023-04-03T18:43:07.493Z,54.19
2023-04-03T18:45:33.937Z,53.75
2023-04-03T18:48:00.592Z,53.95
2023-04-03T18:50:27.067Z,54.06
2023-04-03T18:52:54.057Z,54.75
2023-04-03T18:55:20.587Z,54.71
2023-04-03T18:57:48.265Z,55.23
2023-04-03T19:00:16.107Z,55.55
2023-04-03T19:02:43.007Z,55.17
2023-04-03T19:05:12.420Z,55.41
2023-04-03T19:07:39.034Z,55.33
2023-04-03T19:10:06.206Z,55.72
2023-04-03T19:12:32.580Z,55.60
2023-04-03T19:14:59.048Z,55.62
2023-04-03T19:17:25.413Z,54.96
2023-04-03T19:19:51.797Z,55.21
2023-04-03T19:22:18.206Z,55.42
2023-04-03T19:24:45.017Z,55.98
2023-04-03T19:27:11.381Z,56.55
2023-04-03T19:29:37.769Z,56.03
2023-04-03T19:32:04.143Z,55.98
2023-04-03T19:34:30.570Z,56.42
2023-04-03T19:36:56.967Z,56.69
2023-04-03T19:39:26.196Z,56.47
2023-04-03T19:41:52.943Z,56.58
2023-04-03T19:44:19.575Z,57.63
2023-04-03T19:46:51.306Z,56.27
2023-04-03T19:49:19.272Z,57.21
2023-04-03T19:51:45.852Z,56.68
2023-04-03T19:54:55.299Z,56.32
2023-04-03T20:04:29.706Z,56.49
2023-04-03T20:07:29.773Z,56.02
2023-04-03T20:10:18.385Z,58.40
2023-04-03T20:13:31.263Z,57.15
2023-04-03T20:26:34.949Z,57.50
2023-04-03T20:29:18.297Z,60.28
2023-04-03T20:31:55.834Z,60.62
2023-04-03T20:35:17.674Z,58.42
2023-04-03T20:49:36.152Z,58.88
2023-04-03T20:56:24.984Z,59.89
2023-04-03T21:02:20.171Z,60.24
2023-04-03T21:05:06.273Z,59.21
2023-04-03T21:08:34.771Z,60.34
2023-04-03T21:18:21.976Z,63.57
2023-04-03T21:20:55.090Z,65.26
2023-04-03T21:23:28.606Z,66.83
2023-04-03T21:26:06.853Z,68.62
2023-04-03T21:28:46.810Z,70.34
2023-04-03T21:31:19.266Z,70.71
2023-04-03T21:34:52.731Z,70.69
2023-04-03T21:48:28.227Z,72.67
2023-04-03T21:58:51.712Z,74.83
2023-04-03T22:09:53.150Z,75.89
2023-04-03T22:20:33.073Z,75.98
2023-04-03T22:23:07.178Z,76.29
2023-04-03T22:25:40.328Z,78.00
2023-04-03T22:28:19.371Z,78.01
2023-04-03T22:30:56.567Z,78.16
2023-04-03T22:33:35.890Z,76.57
2023-04-03T22:36:18.984Z,76.77
2023-04-03T22:38:52.114Z,74.03
2023-04-03T22:41:35.282Z,75.13
2023-04-03T22:47:48.261Z,68.78
2023-04-03T22:50:39.713Z,66.41
2023-04-03T22:53:15.051Z,64.55
2023-04-03T22:56:04.278Z,62.01
2023-04-03T22:58:56.559Z,61.94
2023-04-03T23:01:39.316Z,61.66
2023-04-03T23:04:12.719Z,61.27
2023-04-03T23:06:42.289Z,61.82
2023-04-03T23:09:12.104Z,61.63
2023-04-03T23:11:43.094Z,61.89
2023-04-03T23:14:16.825Z,61.12
2023-04-03T23:19:53.864Z,61.52
2023-04-03T23:22:20.342Z,62.35
2023-04-03T23:24:47.469Z,61.78
2023-04-03T23:27:14.519Z,63.03
2023-04-03T23:30:16.032Z,62.42
2023-04-03T23:33:11.028Z,61.50
2023-04-03T23:35:52.528Z,61.31
2023-04-03T23:38:27.908Z,61.59
2023-04-03T23:41:05.811Z,61.73
2023-04-03T23:43:39.923Z,61.77
2023-04-03T23:46:09.673Z,61.98
2023-04-03T23:48:36.714Z,62.33
2023-04-03T23:51:04.019Z,62.04
2023-04-03T23:53:38.509Z,61.99
2023-04-03T23:56:18.885Z,62.44
2023-04-03T23:58:50.093Z,62.30
